Time;durP1;ratioP1;P1;durP2;ratioP2;P2;SDS_P1;SDS_P2;PMS_P1;PMS_P2;Temp;Humidity;BMP_temperature;BMP_pressure;BME280_temperature;BME280_humidity;BME280_pressure;Samples;Min_cycle;Max_cycle;Signal;HPM_P1;HPM_P2
2023/06/03 00:00:57;;;;;;;78.27;2.30;;;19.80;29.50;;;;;;5031437;28;20491;-69
2023/06/03 00:03:23;;;;;;;78.37;2.30;;;19.70;29.80;;;;;;5030546;28;20670;-71
2023/06/03 00:05:49;;;;;;;80.20;2.90;;;19.60;29.10;;;;;;5030973;28;20180;-71
2023/06/03 00:08:14;;;;;;;80.63;3.30;;;19.60;29.50;;;;;;5031062;28;20170;-71
2023/06/03 00:10:40;;;;;;;86.23;3.20;;;19.60;30.30;;;;;;5030881;28;20277;-71
2023/06/03 00:13:06;;;;;;;78.77;2.50;;;19.50;30.80;;;;;;5030429;28;20677;-71
2023/06/03 00:15:31;;;;;;;78.97;2.40;;;19.30;31.10;;;;;;5030866;28;20263;-71
2023/06/03 00:17:57;;;;;;;79.57;2.70;;;19.30;31.00;;;;;;5030837;28;20661;-71
2023/06/03 00:20:25;;;;;;;78.87;2.57;;;19.30;30.10;;;;;;5032384;28;20588;-71
2023/06/03 00:22:50;;;;;;;80.03;2.80;;;19.10;31.10;;;;;;5034072;28;20177;-71
2023/06/03 00:25:16;;;;;;;79.33;2.60;;;19.20;31.30;;;;;;5034238;28;20473;-71
2023/06/03 00:27:43;;;;;;;79.10;2.50;;;19.10;31.70;;;;;;5034160;28;20174;-71
2023/06/03 00:30:09;;;;;;;79.37;2.60;;;19.10;31.20;;;;;;5034543;28;20763;-71
2023/06/03 00:32:35;;;;;;;79.00;2.40;;;19.00;30.90;;;;;;5033857;28;20457;-71
2023/06/03 00:35:01;;;;;;;79.13;2.43;;;19.00;31.20;;;;;;5034442;28;20193;-71
2023/06/03 00:37:26;;;;;;;82.10;3.30;;;19.00;31.20;;;;;;5034427;28;20408;-71
2023/06/03 00:39:52;;;;;;;78.87;2.17;;;19.10;30.70;;;;;;5034409;28;20182;-71
2023/06/03 00:42:17;;;;;;;79.47;2.70;;;19.00;31.00;;;;;;5033967;28;20164;-71
2023/06/03 00:44:43;;;;;;;80.30;2.47;;;18.90;30.30;;;;;;5033664;28;20190;-71
2023/06/03 00:47:09;;;;;;;79.87;2.37;;;18.90;31.10;;;;;;5034476;28;20684;-71
2023/06/03 00:49:34;;;;;;;79.43;2.50;;;19.10;30.60;;;;;;5034257;28;20256;-71
2023/06/03 00:52:02;;;;;;;81.87;3.00;;;19.00;29.70;;;;;;5034156;28;20797;-71
2023/06/03 00:54:28;;;;;;;80.90;2.57;;;19.00;30.10;;;;;;5033443;28;20406;-71
2023/06/03 00:56:57;;;;;;;81.90;3.20;;;18.90;30.60;;;;;;5033787;28;20411;-71
2023/06/03 00:59:23;;;;;;;79.57;2.50;;;18.90;31.10;;;;;;5034205;28;20169;-71
2023/06/03 01:01:49;;;;;;;79.57;2.37;;;18.80;30.30;;;;;;5034051;28;20494;-71
2023/06/03 01:04:17;;;;;;;79.30;2.20;;;18.70;30.10;;;;;;5033202;28;20182;-71
2023/06/03 01:07:13;;;;;;;79.67;2.50;;;18.70;32.00;;;;;;5033747;28;20166;-71
2023/06/03 01:10:19;;;;;;;79.70;2.50;;;18.60;30.80;;;;;;5011532;28;20950;-71
2023/06/03 01:13:04;;;;;;;80.33;2.80;;;18.50;31.70;;;;;;4971639;28;20552;-71
2023/06/03 01:15:34;;;;;;;79.57;2.30;;;18.40;31.30;;;;;;4972408;28;20870;-71
2023/06/03 01:18:04;;;;;;;79.87;2.60;;;18.40;31.50;;;;;;4972638;28;20423;-71
2023/06/03 01:20:30;;;;;;;79.47;2.13;;;18.50;32.20;;;;;;4972319;28;20579;-71
2023/06/03 01:23:23;;;;;;;80.20;2.40;;;18.40;32.20;;;;;;4971698;28;20480;-71
2023/06/03 01:25:51;;;;;;;80.20;2.40;;;18.20;33.30;;;;;;4972250;28;20417;-71
2023/06/03 01:28:20;;;;;;;79.70;2.20;;;18.20;32.60;;;;;;4956153;28;20797;-71
2023/06/03 01:30:47;;;;;;;80.17;2.50;;;18.20;32.60;;;;;;4972087;28;20457;-71
2023/06/03 01:33:13;;;;;;;80.87;2.90;;;18.20;34.30;;;;;;4955223;28;20473;-71
2023/06/03 01:35:40;;;;;;;79.80;2.23;;;18.10;33.20;;;;;;4972281;28;20414;-70
2023/06/03 01:38:07;;;;;;;80.23;2.50;;;18.10;33.40;;;;;;4972095;28;20422;-70
2023/06/03 01:40:34;;;;;;;80.60;2.60;;;18.00;32.60;;;;;;4971907;28;20431;-70
2023/06/03 01:43:00;;;;;;;80.67;2.67;;;18.00;33.20;;;;;;4983345;28;20418;-71
2023/06/03 01:45:25;;;;;;;82.90;2.63;;;18.00;32.60;;;;;;5016636;28;20446;-70
2023/06/03 01:47:51;;;;;;;80.20;2.40;;;17.90;33.00;;;;;;5032957;28;20348;-70
2023/06/03 01:50:17;;;;;;;79.87;2.03;;;18.00;33.50;;;;;;5033096;28;20660;-70
2023/06/03 01:52:44;;;;;;;80.63;2.70;;;18.10;33.10;;;;;;5032305;28;20180;-72
2023/06/03 01:55:10;;;;;;;80.50;2.37;;;18.10;33.50;;;;;;5032755;28;20203;-71
2023/06/03 01:57:36;;;;;;;80.30;2.50;;;17.90;33.80;;;;;;5032688;28;20827;-71
2023/06/03 02:00:06;;;;;;;80.33;2.40;;;17.80;33.00;;;;;;5032993;28;20576;-71
2023/06/03 02:02:32;;;;;;;80.30;2.23;;;17.90;34.30;;;;;;5032395;28;20164;-71
2023/06/03 02:04:57;;;;;;;80.20;2.07;;;17.70;34.00;;;;;;5031400;28;20442;-71
2023/06/03 02:07:26;;;;;;;80.40;2.27;;;17.80;33.80;;;;;;5032798;28;20407;-71
2023/06/03 02:09:53;;;;;;;80.40;2.13;;;17.70;34.10;;;;;;5032237;28;20181;-71
2023/06/03 02:12:19;;;;;;;80.60;2.30;;;17.60;34.80;;;;;;5032692;28;20902;-71
2023/06/03 02:14:45;;;;;;;81.03;2.10;;;17.70;32.90;;;;;;5032142;28;20435;-71
2023/06/03 02:17:11;;;;;;;81.00;2.37;;;17.80;33.80;;;;;;5032610;28;20404;-71
2023/06/03 02:19:38;;;;;;;82.10;2.50;;;17.70;33.40;;;;;;5032455;28;20544;-71
2023/06/03 02:22:05;;;;;;;83.80;2.80;;;17.60;34.50;;;;;;5032233;28;20419;-71
2023/06/03 02:24:31;;;;;;;81.07;2.33;;;17.50;33.80;;;;;;5031647;28;20427;-71
2023/06/03 02:27:00;;;;;;;81.57;2.47;;;17.50;33.90;;;;;;5032344;28;20494;-71
2023/06/03 02:29:27;;;;;;;82.60;2.70;;;17.60;34.40;;;;;;5032435;28;20416;-71
2023/06/03 02:31:57;;;;;;;81.10;2.27;;;17.50;34.30;;;;;;5032188;28;20451;-71
2023/06/03 02:34:22;;;;;;;81.40;2.40;;;17.50;34.50;;;;;;5031520;28;20431;-71
2023/06/03 02:36:49;;;;;;;81.10;2.00;;;17.50;34.60;;;;;;5032424;28;20457;-71
2023/06/03 02:39:16;;;;;;;81.47;2.40;;;17.40;35.10;;;;;;5032246;28;20161;-71
2023/06/03 02:41:43;;;;;;;83.63;3.80;;;17.20;35.30;;;;;;5032021;28;20502;-71
2023/06/03 02:44:09;;;;;;;82.70;2.87;;;17.30;35.00;;;;;;5031024;28;20443;-71
2023/06/03 02:46:35;;;;;;;81.40;2.00;;;17.10;35.70;;;;;;5032010;28;20415;-71
2023/06/03 02:49:05;;;;;;;81.70;2.30;;;17.10;34.60;;;;;;5031849;28;20177;-71
2023/06/03 02:51:31;;;;;;;81.70;2.23;;;17.10;34.80;;;;;;5047168;28;20200;-71
2023/06/03 02:53:57;;;;;;;82.30;2.40;;;17.10;35.60;;;;;;5031070;28;20821;-71
2023/06/03 02:56:23;;;;;;;83.00;2.70;;;17.00;35.90;;;;;;5047308;28;20173;-71
2023/06/03 02:58:50;;;;;;;82.10;2.50;;;16.90;36.20;;;;;;5031603;28;20173;-71
2023/06/03 03:01:17;;;;;;;82.17;2.30;;;16.80;35.60;;;;;;5031796;28;20424;-71
2023/06/03 03:03:43;;;;;;;81.87;2.30;;;16.80;36.00;;;;;;5030976;28;20512;-71
2023/06/03 03:06:12;;;;;;;82.17;2.53;;;16.80;35.50;;;;;;5030465;28;20770;-71
2023/06/03 03:08:38;;;;;;;82.00;2.27;;;16.80;36.10;;;;;;5031585;28;20172;-71
2023/06/03 03:11:06;;;;;;;81.90;2.10;;;16.80;36.80;;;;;;5031459;28;20451;-71
2023/06/03 03:13:31;;;;;;;82.37;2.47;;;16.70;36.40;;;;;;5031218;28;20430;-71
2023/06/03 03:15:57;;;;;;;81.87;2.10;;;16.70;35.90;;;;;;5031927;28;20403;-71
2023/06/03 03:18:23;;;;;;;83.30;2.57;;;16.80;36.70;;;;;;5031488;28;20249;-71
2023/06/03 03:20:48;;;;;;;82.70;2.33;;;16.60;36.90;;;;;;5031532;28;20204;-71
2023/06/03 03:23:14;;;;;;;82.73;2.57;;;16.80;35.80;;;;;;5030670;28;20176;-71
2023/06/03 03:25:42;;;;;;;82.47;2.23;;;16.80;36.30;;;;;;5030241;28;20187;-71
2023/06/03 03:28:08;;;;;;;82.10;2.20;;;16.80;35.80;;;;;;5031517;28;20173;-71
2023/06/03 03:30:37;;;;;;;81.97;2.00;;;16.70;36.50;;;;;;5031477;28;20530;-71
2023/06/03 03:33:04;;;;;;;82.70;2.53;;;16.70;37.70;;;;;;5030442;28;20168;-71
2023/06/03 03:35:30;;;;;;;82.90;2.40;;;16.70;37.40;;;;;;5031434;28;20435;-71
2023/06/03 03:38:04;;;;;;;82.40;2.33;;;16.70;36.50;;;;;;5031356;28;20923;-71
2023/06/03 03:40:31;;;;;;;84.83;2.93;;;16.70;36.20;;;;;;5031380;28;20411;-71
2023/06/03 03:42:59;;;;;;;83.07;2.77;;;16.70;37.10;;;;;;5030645;28;20490;-71
2023/06/03 03:45:35;;;;;;;82.67;2.57;;;16.60;36.30;;;;;;5031330;28;20434;-71
2023/06/03 03:48:14;;;;;;;82.30;2.40;;;16.60;36.90;;;;;;5031045;28;20444;-71
2023/06/03 03:50:44;;;;;;;82.73;2.50;;;16.70;36.80;;;;;;5031241;28;20446;-71
2023/06/03 03:53:31;;;;;;;82.57;2.17;;;16.70;36.80;;;;;;5030526;28;20407;-71
2023/06/03 03:55:57;;;;;;;83.40;2.70;;;16.70;35.80;;;;;;5033778;28;20921;-71
2023/06/03 03:58:37;;;;;;;82.67;2.23;;;16.70;36.40;;;;;;5035208;28;20411;-71
2023/06/03 04:01:15;;;;;;;83.30;2.53;;;16.50;37.30;;;;;;5033822;28;20435;-71
2023/06/03 04:03:44;;;;;;;83.20;2.80;;;16.60;36.50;;;;;;5034416;28;21083;-71
2023/06/03 04:06:12;;;;;;;83.00;2.60;;;16.50;36.50;;;;;;5033972;28;20414;-71
2023/06/03 04:08:45;;;;;;;82.47;2.10;;;16.60;36.90;;;;;;5035007;28;20415;-71
2023/06/03 04:11:23;;;;;;;82.90;2.50;;;16.60;37.10;;;;;;5035079;28;20435;-71
2023/06/03 04:13:50;;;;;;;82.83;2.37;;;16.70;37.10;;;;;;5034200;28;20424;-71
2023/06/03 04:16:38;;;;;;;82.43;2.10;;;16.80;36.40;;;;;;5034779;28;20743;-71
2023/06/03 04:19:06;;;;;;;83.80;2.70;;;16.80;36.70;;;;;;5050392;28;20910;-71
2023/06/03 04:21:32;;;;;;;82.47;2.00;;;16.80;36.80;;;;;;5034760;28;20498;-71
2023/06/03 04:23:58;;;;;;;82.50;2.10;;;16.90;36.00;;;;;;5033889;28;20443;-71
2023/06/03 04:26:23;;;;;;;83.13;2.70;;;17.00;36.00;;;;;;5050098;28;20426;-71
2023/06/03 04:28:49;;;;;;;82.97;2.40;;;17.00;36.40;;;;;;5034690;28;20184;-71
2023/06/03 04:31:15;;;;;;;83.27;2.77;;;17.10;35.40;;;;;;5049949;28;20204;-71
2023/06/03 04:33:40;;;;;;;83.27;2.80;;;17.10;36.00;;;;;;5033640;28;20279;-71
2023/06/03 04:36:06;;;;;;;83.70;3.10;;;17.20;36.00;;;;;;5034626;28;20259;-71
2023/06/03 04:38:33;;;;;;;82.93;2.37;;;17.20;36.30;;;;;;5034186;28;20351;-71
2023/06/03 04:41:01;;;;;;;83.07;2.53;;;17.30;36.00;;;;;;5034580;28;20166;-71
2023/06/03 04:43:27;;;;;;;83.07;2.73;;;17.30;35.60;;;;;;5033738;28;20412;-71
2023/06/03 04:45:54;;;;;;;82.90;2.27;;;17.40;35.10;;;;;;5034388;28;20417;-71
2023/06/03 04:48:22;;;;;;;83.87;2.83;;;17.40;34.60;;;;;;5034300;28;20412;-71
2023/06/03 04:50:48;;;;;;;83.03;2.53;;;17.50;35.40;;;;;;5034015;28;20456;-71
2023/06/03 04:53:14;;;;;;;83.60;2.87;;;17.60;35.40;;;;;;5033397;28;20492;-71
2023/06/03 04:55:44;;;;;;;85.17;2.90;;;17.60;35.10;;;;;;5033915;28;20468;-71
2023/06/03 04:58:10;;;;;;;82.90;2.60;;;17.70;36.40;;;;;;5034227;28;20196;-71
2023/06/03 05:00:36;;;;;;;83.27;2.83;;;17.80;34.50;;;;;;5033714;28;20415;-71
2023/06/03 05:03:08;;;;;;;83.40;2.90;;;17.80;35.20;;;;;;5033327;28;20415;-71
2023/06/03 05:05:35;;;;;;;84.60;2.60;;;17.90;35.80;;;;;;5048722;28;20419;-71
2023/06/03 05:08:01;;;;;;;82.57;2.27;;;18.00;36.00;;;;;;5034010;28;20828;-71
2023/06/03 05:10:27;;;;;;;85.00;2.90;;;18.00;34.00;;;;;;5033768;28;20481;-71
2023/06/03 05:12:53;;;;;;;82.77;2.57;;;18.00;34.40;;;;;;5048580;28;20222;-71
2023/06/03 05:15:19;;;;;;;82.80;2.60;;;17.90;32.60;;;;;;5033479;28;20284;-71
2023/06/03 05:17:45;;;;;;;84.50;3.03;;;17.70;33.90;;;;;;5033722;28;20180;-71
2023/06/03 05:20:11;;;;;;;83.47;2.70;;;17.70;33.90;;;;;;5033622;28;20414;-71
2023/06/03 05:22:37;;;;;;;85.20;3.70;;;17.70;33.40;;;;;;5033021;28;20445;-71
2023/06/03 05:25:04;;;;;;;85.67;3.10;;;17.70;32.30;;;;;;5033483;28;20467;-71
2023/06/03 05:27:30;;;;;;;83.87;3.47;;;17.60;34.70;;;;;;5033563;28;20413;-71
2023/06/03 05:29:56;;;;;;;87.07;3.37;;;17.50;33.40;;;;;;5033339;28;20423;-71
2023/06/03 05:32:21;;;;;;;83.50;2.67;;;17.50;34.10;;;;;;5033401;28;20216;-71
2023/06/03 05:34:47;;;;;;;84.40;3.33;;;17.70;34.00;;;;;;5032540;28;20189;-71
2023/06/03 05:37:13;;;;;;;84.37;3.07;;;17.40;33.50;;;;;;5033425;28;20177;-71
2023/06/03 05:39:39;;;;;;;88.03;3.07;;;17.10;34.00;;;;;;5033187;28;20166;-71
2023/06/03 05:42:05;;;;;;;93.00;3.27;;;16.90;34.30;;;;;;5033078;28;20177;-71
2023/06/03 05:44:30;;;;;;;82.47;2.43;;;16.90;34.90;;;;;;5032756;28;20428;-71
2023/06/03 05:46:56;;;;;;;83.27;2.77;;;17.50;34.00;;;;;;5033226;28;20168;-71
2023/06/03 05:49:21;;;;;;;82.57;2.20;;;17.50;32.80;;;;;;5033195;28;20176;-71
2023/06/03 05:51:47;;;;;;;83.17;2.40;;;17.70;32.70;;;;;;5032887;28;20197;-71
2023/06/03 05:54:13;;;;;;;83.30;2.93;;;17.60;33.00;;;;;;5032663;28;20224;-71
2023/06/03 05:56:39;;;;;;;87.50;3.00;;;17.70;33.50;;;;;;5032933;28;20172;-71
2023/06/03 05:59:05;;;;;;;82.37;2.30;;;18.20;33.00;;;;;;5033015;28;20409;-71
2023/06/03 06:01:32;;;;;;;82.97;2.70;;;18.00;31.40;;;;;;5033012;28;20467;-71
2023/06/03 06:03:58;;;;;;;82.60;2.43;;;17.80;32.70;;;;;;5031962;28;20184;-71
2023/06/03 06:06:23;;;;;;;83.00;2.77;;;17.30;32.90;;;;;;5042043;22;20762;-71
2023/06/03 06:08:49;;;;;;;83.47;2.87;;;17.30;33.40;;;;;;5046064;28;20204;-70
2023/06/03 06:11:15;;;;;;;82.30;2.27;;;17.10;33.40;;;;;;5052302;28;20284;-70
2023/06/03 06:13:41;;;;;;;83.07;2.80;;;17.30;33.50;;;;;;5051900;28;20416;-71
2023/06/03 06:16:07;;;;;;;82.47;2.73;;;17.50;33.60;;;;;;5051351;28;20415;-70
2023/06/03 06:18:32;;;;;;;82.30;2.30;;;17.40;32.70;;;;;;5051551;28;20192;-71
2023/06/03 06:20:59;;;;;;;82.17;2.33;;;17.60;32.50;;;;;;5052521;28;20488;-70
2023/06/03 06:23:25;;;;;;;83.17;2.70;;;17.50;32.40;;;;;;5051682;28;20251;-71
2023/06/03 06:25:52;;;;;;;82.17;2.40;;;17.30;32.90;;;;;;5052131;28;20440;-70
2023/06/03 06:28:20;;;;;;;82.97;2.60;;;17.70;34.30;;;;;;5052092;28;20519;-71
2023/06/03 06:30:46;;;;;;;83.37;2.77;;;18.30;32.40;;;;;;5052127;28;20816;-71
2023/06/03 06:33:17;;;;;;;81.97;2.27;;;18.90;30.30;;;;;;5051495;28;20500;-71
2023/06/03 06:35:44;;;;;;;82.50;2.70;;;19.40;29.70;;;;;;5051834;28;20637;-71
2023/06/03 06:38:11;;;;;;;82.07;2.30;;;19.50;29.60;;;;;;5052250;28;20498;-71
2023/06/03 06:40:40;;;;;;;82.10;2.37;;;19.30;29.40;;;;;;5051846;28;20415;-71
2023/06/03 06:43:08;;;;;;;83.27;2.60;;;19.00;30.70;;;;;;5050149;28;20493;-71
2023/06/03 06:45:34;;;;;;;81.90;2.20;;;19.30;30.60;;;;;;5051911;28;20870;-71
2023/06/03 06:48:11;;;;;;;81.90;2.10;;;19.60;29.30;;;;;;5051806;28;20512;-71
2023/06/03 06:50:55;;;;;;;82.33;2.63;;;19.80;30.10;;;;;;5051578;28;20445;-71
2023/06/03 06:53:23;;;;;;;82.07;2.30;;;19.90;29.00;;;;;;5051194;28;20410;-71
2023/06/03 06:55:54;;;;;;;82.47;2.47;;;20.10;29.10;;;;;;5051799;28;20410;-71
2023/06/03 06:58:21;;;;;;;82.47;2.60;;;20.10;29.60;;;;;;5051751;28;20509;-71
2023/06/03 07:00:48;;;;;;;88.70;2.90;;;20.20;28.90;;;;;;5049316;28;20416;-71
2023/06/03 07:03:18;;;;;;;81.77;2.30;;;20.20;28.50;;;;;;5044137;28;20453;-71
2023/06/03 07:05:44;;;;;;;82.23;2.43;;;20.00;29.40;;;;;;5039160;28;20454;-71
2023/06/03 07:08:10;;;;;;;82.50;2.60;;;20.30;29.20;;;;;;5050036;28;20536;-70
2023/06/03 07:10:35;;;;;;;82.20;2.60;;;20.20;29.20;;;;;;5051277;28;21055;-71
2023/06/03 07:13:02;;;;;;;81.87;2.13;;;20.50;28.80;;;;;;5050968;28;20753;-71
2023/06/03 07:15:29;;;;;;;82.17;2.40;;;20.40;28.20;;;;;;5051277;28;20255;-71
2023/06/03 07:17:57;;;;;;;83.07;2.27;;;20.20;29.00;;;;;;5051275;28;20438;-70
2023/06/03 07:20:28;;;;;;;83.10;2.53;;;20.00;28.90;;;;;;5050041;28;20981;-71
2023/06/03 07:22:54;;;;;;;81.77;2.30;;;20.10;28.70;;;;;;5050767;28;20429;-71
2023/06/03 07:25:35;;;;;;;81.80;2.40;;;19.80;29.20;;;;;;5051492;28;20462;-71
2023/06/03 07:28:03;;;;;;;81.63;2.17;;;19.50;29.40;;;;;;5050857;28;20289;-70
2023/06/03 07:30:29;;;;;;;81.40;2.20;;;19.20;29.80;;;;;;5049742;28;20468;-71
2023/06/03 07:32:59;;;;;;;82.77;2.70;;;21.00;32.20;;;;;;5050781;28;20400;-71
2023/06/03 07:35:25;;;;;;;81.50;2.10;;;19.60;30.40;;;;;;5051104;28;20637;-71
2023/06/03 07:37:51;;;;;;;81.20;2.10;;;19.60;29.50;;;;;;5050964;28;20442;-71
2023/06/03 07:40:16;;;;;;;81.27;2.13;;;19.50;29.70;;;;;;5051257;28;20259;-70
2023/06/03 07:42:47;;;;;;;81.87;2.83;;;19.30;30.70;;;;;;5050534;28;20172;-70
2023/06/03 07:45:13;;;;;;;82.33;2.50;;;20.00;30.20;;;;;;5051290;28;20255;-71
2023/06/03 07:47:40;;;;;;;81.00;2.27;;;20.70;28.90;;;;;;5049704;28;20443;-69
2023/06/03 07:50:32;;;;;;;81.60;2.60;;;20.70;28.40;;;;;;5050931;28;20420;-71
2023/06/03 07:53:03;;;;;;;81.00;2.20;;;21.50;27.60;;;;;;5045441;28;20413;-71
2023/06/03 07:55:36;;;;;;;80.80;1.93;;;21.30;26.90;;;;;;5051020;28;20491;-72
2023/06/03 07:58:02;;;;;;;90.50;3.40;;;21.60;27.90;;;;;;5051497;28;20427;-73
2023/06/03 08:00:28;;;;;;;81.73;2.63;;;21.50;27.00;;;;;;5051182;28;20432;-72
2023/06/03 08:02:53;;;;;;;80.77;2.20;;;21.80;27.30;;;;;;5050767;28;20679;-72
2023/06/03 08:05:30;;;;;;;80.60;2.10;;;22.00;27.40;;;;;;5051338;28;20566;-72
2023/06/03 08:07:55;;;;;;;80.70;2.17;;;21.90;26.40;;;;;;5051160;28;20216;-72
2023/06/03 08:10:24;;;;;;;81.37;2.40;;;21.40;27.00;;;;;;5050953;28;20454;-71
2023/06/03 08:12:50;;;;;;;81.13;2.60;;;21.50;27.60;;;;;;5050739;28;20257;-72
2023/06/03 08:15:40;;;;;;;80.83;2.33;;;21.70;27.20;;;;;;5051349;28;20506;-72
2023/06/03 08:18:06;;;;;;;82.07;2.67;;;21.80;27.30;;;;;;5046166;28;20982;-71
2023/06/03 08:20:34;;;;;;;81.83;2.90;;;21.30;27.90;;;;;;5051374;28;20416;-72
2023/06/03 08:23:00;;;;;;;80.77;2.47;;;20.90;29.10;;;;;;5050576;28;20429;-72
2023/06/03 08:25:25;;;;;;;86.40;3.30;;;21.00;28.60;;;;;;5051413;28;20512;-72
2023/06/03 08:27:51;;;;;;;84.27;2.60;;;20.90;28.70;;;;;;5051213;28;20222;-73
2023/06/03 08:30:22;;;;;;;80.47;2.50;;;21.00;28.30;;;;;;5051382;28;20205;-72
2023/06/03 08:32:48;;;;;;;80.10;2.30;;;20.90;28.80;;;;;;5050865;28;20449;-72
2023/06/03 08:35:16;;;;;;;80.77;2.53;;;20.70;28.80;;;;;;5050763;28;20420;-73
2023/06/03 08:37:43;;;;;;;81.20;2.27;;;21.40;28.50;;;;;;5050821;28;20479;-72
2023/06/03 08:40:10;;;;;;;80.37;2.40;;;21.90;27.30;;;;;;5051357;28;20414;-74
2023/06/03 08:42:43;;;;;;;79.97;2.37;;;21.60;28.00;;;;;;5053888;28;20780;-73
2023/06/03 08:45:13;;;;;;;80.27;2.60;;;21.90;28.20;;;;;;5054946;28;20848;-73
2023/06/03 08:47:41;;;;;;;80.77;2.73;;;22.30;27.90;;;;;;5052856;28;20461;-73
2023/06/03 08:50:13;;;;;;;80.53;2.60;;;22.80;27.50;;;;;;5054419;28;20436;-73
2023/06/03 08:52:40;;;;;;;80.37;2.60;;;23.40;25.80;;;;;;5053962;28;20399;-73
2023/06/03 08:55:06;;;;;;;80.60;2.50;;;23.60;26.40;;;;;;5054519;28;20407;-73
2023/06/03 08:57:35;;;;;;;80.10;2.27;;;23.90;25.50;;;;;;5054707;28;20752;-74
2023/06/03 09:00:02;;;;;;;80.80;2.30;;;23.50;26.50;;;;;;5054733;28;20792;-73
2023/06/03 09:02:32;;;;;;;79.67;2.43;;;23.80;26.40;;;;;;5052523;28;20414;-73
2023/06/03 09:05:01;;;;;;;79.50;2.47;;;23.80;25.20;;;;;;5052784;28;20466;-73
2023/06/03 09:07:28;;;;;;;81.40;2.40;;;24.10;25.10;;;;;;5055822;28;20838;-73
2023/06/03 09:09:55;;;;;;;79.90;2.60;;;23.50;24.90;;;;;;5055940;28;20549;-73
2023/06/03 09:12:21;;;;;;;79.37;2.30;;;23.00;26.90;;;;;;5055520;28;20416;-73
2023/06/03 09:14:47;;;;;;;80.47;2.67;;;23.40;25.40;;;;;;5054876;28;20408;-72
2023/06/03 09:17:13;;;;;;;79.13;2.17;;;22.60;26.40;;;;;;5055568;28;20433;-73
2023/06/03 09:19:39;;;;;;;79.87;2.77;;;21.80;27.50;;;;;;5056194;28;20482;-73
2023/06/03 09:22:05;;;;;;;79.90;2.70;;;22.00;27.90;;;;;;5055465;28;20429;-73
2023/06/03 09:24:31;;;;;;;79.30;2.77;;;22.80;28.00;;;;;;5053172;28;20421;-71
2023/06/03 09:26:57;;;;;;;79.23;2.50;;;23.70;26.30;;;;;;5055766;28;20422;-72
2023/06/03 09:29:23;;;;;;;78.73;2.27;;;24.40;25.80;;;;;;5055549;28;20497;-72
2023/06/03 09:31:49;;;;;;;80.63;2.93;;;24.80;25.30;;;;;;5056184;28;20886;-73
2023/06/03 09:34:16;;;;;;;79.10;2.60;;;25.30;24.10;;;;;;5054382;28;20416;-73
2023/06/03 09:36:46;;;;;;;78.30;2.30;;;25.10;23.80;;;;;;5055222;28;20252;-73
2023/06/03 09:39:16;;;;;;;78.80;2.37;;;24.30;23.70;;;;;;5055835;28;20402;-73
2023/06/03 09:41:42;;;;;;;79.07;2.40;;;23.40;25.30;;;;;;5055497;28;20410;-73
2023/06/03 09:44:10;;;;;;;78.47;2.37;;;23.50;26.40;;;;;;5055090;28;20410;-72
2023/06/03 09:46:36;;;;;;;79.30;2.40;;;23.50;25.10;;;;;;5056850;28;20175;-72
2023/06/03 09:49:10;;;;;;;78.73;2.60;;;23.30;25.90;;;;;;5057036;28;20410;-73
2023/06/03 09:51:44;;;;;;;79.83;2.80;;;23.40;27.80;;;;;;5056093;28;20449;-73
2023/06/03 09:54:18;;;;;;;81.17;2.33;;;23.30;25.90;;;;;;5059557;28;20410;-73
2023/06/03 09:56:48;;;;;;;78.57;2.77;;;24.00;26.80;;;;;;5061562;28;20445;-71
2023/06/03 09:59:29;;;;;;;79.17;2.50;;;24.80;24.60;;;;;;5062855;28;20407;-71
2023/06/03 10:01:55;;;;;;;78.40;2.47;;;25.30;24.00;;;;;;5061795;28;20406;-73
2023/06/03 10:04:41;;;;;;;78.27;2.53;;;24.60;24.10;;;;;;5057001;28;20463;-73
2023/06/03 10:07:16;;;;;;;78.10;2.63;;;24.80;24.50;;;;;;5055151;28;20234;-73
2023/06/03 10:09:46;;;;;;;78.67;3.00;;;25.40;24.00;;;;;;5056221;28;20837;-73
2023/06/03 10:12:13;;;;;;;77.87;2.43;;;24.70;24.30;;;;;;5054933;28;20532;-72
2023/06/03 10:14:49;;;;;;;77.80;2.50;;;25.40;24.10;;;;;;5054561;28;20398;-73
2023/06/03 10:17:17;;;;;;;77.67;2.40;;;25.90;24.00;;;;;;5056076;28;20904;-73
2023/06/03 10:19:44;;;;;;;77.50;2.40;;;25.90;23.50;;;;;;5055967;28;20403;-72
2023/06/03 10:22:16;;;;;;;77.97;2.67;;;26.20;23.00;;;;;;5053912;28;20420;-73
2023/06/03 10:24:44;;;;;;;77.27;2.40;;;26.40;22.10;;;;;;5054350;28;20441;-73
2023/06/03 10:27:11;;;;;;;101.90;2.70;;;26.80;22.10;;;;;;5055127;28;20743;-73
2023/06/03 10:29:37;;;;;;;76.93;2.20;;;27.20;21.20;;;;;;5054118;28;20492;-73
2023/06/03 10:32:06;;;;;;;77.43;2.50;;;27.30;20.80;;;;;;5054266;28;20960;-73
2023/06/03 10:34:36;;;;;;;77.10;2.67;;;27.50;21.30;;;;;;5053866;28;20187;-72
2023/06/03 10:37:04;;;;;;;77.93;2.83;;;26.60;22.00;;;;;;5053971;28;20426;-72
2023/06/03 10:39:30;;;;;;;78.87;2.67;;;26.50;22.30;;;;;;5053255;28;20789;-72
2023/06/03 10:42:05;;;;;;;76.60;2.30;;;26.70;22.60;;;;;;5053459;28;20403;-73
2023/06/03 10:44:32;;;;;;;76.57;2.43;;;27.10;22.20;;;;;;5053441;28;20479;-73
2023/06/03 10:47:09;;;;;;;76.47;2.30;;;27.50;21.40;;;;;;5053541;28;20430;-72
2023/06/03 10:49:43;;;;;;;77.43;2.90;;;27.40;21.80;;;;;;5053509;28;20924;-72
2023/06/03 10:52:33;;;;;;;76.30;2.43;;;27.30;20.80;;;;;;5054007;28;20539;-73
2023/06/03 10:55:20;;;;;;;79.77;2.40;;;26.50;22.40;;;;;;5052832;28;20901;-72
2023/06/03 10:57:51;;;;;;;78.17;2.83;;;27.40;22.00;;;;;;5053233;28;20422;-72
2023/06/03 11:00:56;;;;;;;76.40;2.70;;;27.40;21.10;;;;;;5053813;28;20394;-73
2023/06/03 11:03:23;;;;;;;76.70;2.70;;;27.80;21.10;;;;;;5052333;28;20442;-72
2023/06/03 11:05:50;;;;;;;75.87;2.67;;;28.10;21.50;;;;;;5053698;28;20410;-72
2023/06/03 11:08:53;;;;;;;76.93;2.97;;;28.60;21.60;;;;;;5051771;28;20860;-72
2023/06/03 11:11:39;;;;;;;76.00;2.53;;;28.80;19.20;;;;;;5051333;28;20863;-72
2023/06/03 11:14:05;;;;;;;77.17;2.50;;;28.40;21.30;;;;;;5050512;28;20410;-72
2023/06/03 11:16:30;;;;;;;75.27;2.00;;;29.00;19.00;;;;;;5051355;28;20959;-72
2023/06/03 11:19:28;;;;;;;75.80;2.37;;;28.70;19.30;;;;;;5051471;28;20172;-72
2023/06/03 11:21:54;;;;;;;75.10;2.50;;;28.30;19.20;;;;;;5049960;28;20208;-72
2023/06/03 11:24:38;;;;;;;78.70;3.00;;;28.00;19.20;;;;;;5050601;28;20433;-72
2023/06/03 11:27:25;;;;;;;74.83;2.47;;;28.20;20.30;;;;;;5051589;28;20425;-72
2023/06/03 11:29:56;;;;;;;75.70;2.80;;;28.90;19.60;;;;;;5046998;28;20465;-72
2023/06/03 11:32:24;;;;;;;74.90;2.40;;;29.50;19.60;;;;;;5037368;28;20529;-72
2023/06/03 11:35:10;;;;;;;75.73;2.40;;;29.30;17.80;;;;;;5037811;28;20427;-72
2023/06/03 11:37:48;;;;;;;74.77;2.40;;;28.70;20.00;;;;;;5030906;28;20435;-72
2023/06/03 11:40:18;;;;;;;75.07;2.60;;;29.90;18.50;;;;;;5031430;28;20896;-72
2023/06/03 11:42:47;;;;;;;74.70;2.33;;;30.10;17.10;;;;;;5030660;28;20884;-72
2023/06/03 11:45:18;;;;;;;75.00;2.50;;;30.70;16.80;;;;;;5031187;28;20422;-72
2023/06/03 11:47:48;;;;;;;74.63;2.30;;;31.30;15.70;;;;;;5031229;28;20613;-70
2023/06/03 11:50:15;;;;;;;73.87;2.23;;;29.50;18.30;;;;;;5031573;28;20448;-70
2023/06/03 11:52:40;;;;;;;73.87;2.30;;;31.30;17.70;;;;;;5046414;28;20504;-70
2023/06/03 11:55:06;;;;;;;74.00;2.37;;;33.20;14.20;;;;;;5051109;28;20844;-71
2023/06/03 11:57:33;;;;;;;74.00;2.10;;;34.00;12.80;;;;;;5051640;28;20191;-70
2023/06/03 12:00:09;;;;;;;73.70;2.50;;;34.10;11.70;;;;;;5051008;28;20414;-72
2023/06/03 12:02:40;;;;;;;73.30;2.47;;;33.90;14.10;;;;;;5049444;28;20425;-73
2023/06/03 12:05:07;;;;;;;73.10;2.33;;;34.50;12.10;;;;;;5050118;28;20917;-71
2023/06/03 12:07:33;;;;;;;71.40;2.03;;;35.20;11.00;;;;;;5049589;28;20544;-70
2023/06/03 12:09:59;;;;;;;71.50;2.50;;;35.40;11.20;;;;;;5050072;28;20509;-70
2023/06/03 12:12:24;;;;;;;88.80;2.00;;;35.40;10.50;;;;;;5051335;28;20249;-72
2023/06/03 12:14:50;;;;;;;71.40;2.40;;;35.30;10.90;;;;;;5051112;28;20410;-70
2023/06/03 12:17:18;;;;;;;69.90;2.43;;;35.50;10.80;;;;;;5054424;28;20261;-70
2023/06/03 12:19:45;;;;;;;69.67;2.43;;;35.40;9.90;;;;;;5055014;28;20546;-70
2023/06/03 12:22:12;;;;;;;69.87;2.23;;;34.60;10.50;;;;;;5054915;28;20497;-71
2023/06/03 12:24:42;;;;;;;70.53;2.47;;;34.30;11.40;;;;;;5054499;28;20410;-71
2023/06/03 12:27:11;;;;;;;70.13;2.73;;;33.90;11.70;;;;;;5054861;28;20433;-73
2023/06/03 12:29:46;;;;;;;69.87;2.43;;;34.50;10.90;;;;;;5054729;28;20417;-70
2023/06/03 12:32:12;;;;;;;70.60;3.50;;;34.60;10.00;;;;;;5054839;28;20524;-71
2023/06/03 12:34:38;;;;;;;68.37;1.93;;;35.40;11.50;;;;;;5054030;28;20502;-73
2023/06/03 12:37:05;;;;;;;69.17;2.50;;;36.10;9.90;;;;;;5054423;28;20283;-73
2023/06/03 12:39:43;;;;;;;73.13;3.60;;;36.20;9.50;;;;;;5054492;28;20551;-70
2023/06/03 12:42:10;;;;;;;67.87;2.00;;;36.60;9.00;;;;;;5054528;28;20825;-70
2023/06/03 12:44:43;;;;;;;67.20;2.03;;;36.10;7.40;;;;;;5054021;28;20481;-70
2023/06/03 12:47:09;;;;;;;67.90;2.23;;;35.50;9.00;;;;;;5054524;28;20430;-70